Time;durP1;ratioP1;P1;durP2;ratioP2;P2;SDS_P1;SDS_P2;PMS_P1;PMS_P2;Temp;Humidity;BMP_temperature;BMP_pressure;BME280_temperature;BME280_humidity;BME280_pressure;Samples;Min_cycle;Max_cycle;Signal;HPM_P1;HPM_P2
2021/04/22 00:01:23;;;;;;;1.57;1.10;;;25.60;50.70;;;;;;4993632;28;20529;-80
2021/04/22 00:03:49;;;;;;;2.17;1.30;;;25.60;50.70;;;;;;4993655;28;20487;-83
2021/04/22 00:06:15;;;;;;;1.00;0.90;;;25.60;50.70;;;;;;4993754;28;20440;-81
2021/04/22 00:08:41;;;;;;;1.93;1.00;;;25.60;50.70;;;;;;4993768;28;20589;-80
2021/04/22 00:11:08;;;;;;;1.17;0.90;;;25.50;50.60;;;;;;4993640;28;20448;-82
2021/04/22 00:13:35;;;;;;;1.73;1.17;;;25.60;50.70;;;;;;4993618;28;20539;-81
2021/04/22 00:16:02;;;;;;;1.60;1.30;;;25.60;50.70;;;;;;4993410;28;20457;-80
2021/04/22 00:18:28;;;;;;;1.73;1.27;;;25.50;50.60;;;;;;4993376;28;20464;-80
2021/04/22 00:20:55;;;;;;;1.40;1.20;;;25.60;50.70;;;;;;4993569;28;20506;-81
2021/04/22 00:23:21;;;;;;;1.60;1.30;;;25.50;50.60;;;;;;4993509;28;20997;-82
2021/04/22 00:25:47;;;;;;;2.10;1.00;;;25.50;50.60;;;;;;4993697;28;20440;-80
2021/04/22 00:28:15;;;;;;;1.00;0.90;;;25.50;50.60;;;;;;4993543;28;20443;-81
2021/04/22 00:30:43;;;;;;;1.20;0.93;;;25.50;50.70;;;;;;4993513;28;20447;-80
2021/04/22 00:33:12;;;;;;;1.23;0.80;;;25.50;50.60;;;;;;4993639;28;20451;-80
2021/04/22 00:35:39;;;;;;;1.20;1.00;;;25.50;50.70;;;;;;4993455;28;20443;-80
2021/04/22 00:38:07;;;;;;;1.10;0.90;;;25.50;50.70;;;;;;4996490;28;20448;-80
2021/04/22 00:40:34;;;;;;;2.33;1.43;;;25.50;50.60;;;;;;4997468;28;20454;-80
2021/04/22 00:43:00;;;;;;;1.70;1.10;;;25.50;50.60;;;;;;4997029;28;20491;-83
2021/04/22 00:45:27;;;;;;;1.50;1.03;;;25.50;50.60;;;;;;4997171;28;20444;-80
2021/04/22 00:47:54;;;;;;;1.57;1.20;;;25.50;50.60;;;;;;4997144;28;20544;-80
2021/04/22 00:50:23;;;;;;;2.13;1.00;;;25.50;50.60;;;;;;4997058;28;20843;-84
2021/04/22 00:52:52;;;;;;;1.57;1.20;;;25.40;50.60;;;;;;4997270;28;20447;-80
2021/04/22 00:55:19;;;;;;;4.70;1.43;;;25.50;50.60;;;;;;4997125;28;20466;-80
2021/04/22 00:57:45;;;;;;;1.20;1.00;;;25.40;50.60;;;;;;4996881;28;20501;-80
2021/04/22 01:00:15;;;;;;;1.57;1.10;;;25.40;50.60;;;;;;4996594;28;20475;-80
2021/04/22 01:02:41;;;;;;;1.90;1.40;;;25.40;50.60;;;;;;4996730;28;20491;-80
2021/04/22 01:05:10;;;;;;;1.50;1.17;;;25.40;50.60;;;;;;4996697;28;20447;-80
2021/04/22 01:07:39;;;;;;;1.27;1.07;;;25.40;50.50;;;;;;4996820;28;20440;-80
2021/04/22 01:10:07;;;;;;;1.43;1.17;;;25.40;50.60;;;;;;4996788;28;20448;-80
2021/04/22 01:12:33;;;;;;;1.23;1.00;;;25.40;50.60;;;;;;4996609;28;20450;-80
2021/04/22 01:15:00;;;;;;;1.40;1.00;;;25.50;50.70;;;;;;4996473;28;20462;-80
2021/04/22 01:17:26;;;;;;;2.00;1.07;;;25.40;50.70;;;;;;4996291;28;20561;-80
2021/04/22 01:19:52;;;;;;;1.70;1.20;;;25.40;50.70;;;;;;4996444;28;20447;-80
2021/04/22 01:22:19;;;;;;;1.90;1.10;;;25.40;50.70;;;;;;4996294;28;20487;-83
2021/04/22 01:24:46;;;;;;;2.90;1.30;;;25.40;50.80;;;;;;4996360;28;20443;-80
2021/04/22 01:27:12;;;;;;;1.30;1.10;;;25.30;50.60;;;;;;4996365;28;20455;-81
2021/04/22 01:29:38;;;;;;;1.20;1.00;;;25.30;50.60;;;;;;4996319;28;20811;-81
2021/04/22 01:32:06;;;;;;;1.20;1.00;;;25.30;50.60;;;;;;4996254;28;20490;-79
2021/04/22 01:34:32;;;;;;;1.30;1.20;;;25.30;50.60;;;;;;4996012;28;20436;-80
2021/04/22 01:36:58;;;;;;;1.50;1.10;;;25.30;50.60;;;;;;4996330;28;20849;-80
2021/04/22 01:39:26;;;;;;;3.17;1.20;;;25.30;50.70;;;;;;4996074;28;20926;-80
2021/04/22 01:41:52;;;;;;;1.83;1.27;;;25.30;50.60;;;;;;4996193;28;20465;-81
2021/04/22 01:44:18;;;;;;;1.30;1.20;;;25.30;50.70;;;;;;4996136;28;20447;-80
2021/04/22 01:46:45;;;;;;;1.73;1.10;;;25.30;50.70;;;;;;4996034;28;20510;-80
2021/04/22 01:49:11;;;;;;;1.37;1.20;;;25.30;50.70;;;;;;4995881;28;20457;-79
2021/04/22 01:51:37;;;;;;;1.47;1.10;;;25.20;50.60;;;;;;4996012;28;20458;-80
2021/04/22 01:54:05;;;;;;;1.50;1.40;;;25.30;50.70;;;;;;4995683;28;20455;-84
2021/04/22 01:56:32;;;;;;;1.90;1.20;;;25.30;50.60;;;;;;4995717;28;20443;-83
2021/04/22 01:58:58;;;;;;;1.73;1.10;;;25.20;50.60;;;;;;4995763;28;20447;-79
2021/04/22 02:01:24;;;;;;;1.43;1.17;;;25.20;50.70;;;;;;4995556;28;20483;-84
2021/04/22 02:03:50;;;;;;;1.10;0.90;;;25.20;50.60;;;;;;4995668;28;20483;-80
2021/04/22 02:06:17;;;;;;;1.50;1.20;;;25.20;50.70;;;;;;4995542;28;20454;-80
2021/04/22 02:08:43;;;;;;;1.17;1.07;;;25.20;50.60;;;;;;4995567;28;20451;-80
2021/04/22 02:11:10;;;;;;;1.40;1.10;;;25.20;50.60;;;;;;4995560;28;20513;-84
2021/04/22 02:13:37;;;;;;;1.40;1.10;;;25.20;50.60;;;;;;4995471;28;20451;-80
2021/04/22 02:16:03;;;;;;;2.03;1.13;;;25.20;50.60;;;;;;4995406;28;20451;-80
2021/04/22 02:18:30;;;;;;;2.23;1.27;;;25.20;50.60;;;;;;4995405;28;20467;-80
2021/04/22 02:20:56;;;;;;;2.20;1.60;;;25.20;50.60;;;;;;4995334;28;20461;-80
2021/04/22 02:23:25;;;;;;;1.60;1.20;;;25.20;50.60;;;;;;4995379;28;20510;-81
2021/04/22 02:25:51;;;;;;;1.17;1.03;;;25.20;50.70;;;;;;4995246;28;20448;-84
2021/04/22 02:28:18;;;;;;;1.77;1.10;;;25.20;50.70;;;;;;4995117;28;20451;-80
2021/04/22 02:30:46;;;;;;;1.30;1.13;;;25.20;50.60;;;;;;4995185;28;21014;-79
2021/04/22 02:33:15;;;;;;;1.20;1.07;;;25.20;50.60;;;;;;4995118;28;20547;-80
2021/04/22 02:35:44;;;;;;;1.43;1.10;;;25.20;50.60;;;;;;4995052;28;20461;-80
2021/04/22 02:38:12;;;;;;;2.63;1.37;;;25.20;50.70;;;;;;4995307;28;20450;-83
2021/04/22 02:40:41;;;;;;;1.43;1.07;;;25.20;50.60;;;;;;4994982;28;20450;-80
2021/04/22 02:43:09;;;;;;;1.43;1.10;;;25.20;50.70;;;;;;4994877;28;20490;-81
2021/04/22 02:45:38;;;;;;;1.67;1.20;;;25.20;50.60;;;;;;4994840;28;20459;-80
2021/04/22 02:48:06;;;;;;;1.73;1.40;;;25.20;50.60;;;;;;4994757;28;20464;-83
2021/04/22 02:50:34;;;;;;;1.80;1.33;;;25.20;50.70;;;;;;4994716;28;20526;-80
2021/04/22 02:53:02;;;;;;;1.23;1.00;;;25.20;50.60;;;;;;4994926;28;20465;-80
2021/04/22 02:55:28;;;;;;;1.30;1.10;;;25.20;50.60;;;;;;4994774;28;20454;-80
2021/04/22 02:57:54;;;;;;;2.70;1.37;;;25.20;50.60;;;;;;4994675;28;20459;-80
2021/04/22 03:00:23;;;;;;;1.63;1.47;;;25.20;50.60;;;;;;4993763;28;20479;-80
2021/04/22 03:02:50;;;;;;;1.70;1.17;;;25.20;50.50;;;;;;4994459;28;20499;-80
2021/04/22 03:05:18;;;;;;;1.20;1.07;;;25.20;50.60;;;;;;4994484;28;20446;-80
2021/04/22 03:07:44;;;;;;;1.20;1.10;;;25.20;50.50;;;;;;4994375;28;20470;-80
2021/04/22 03:10:14;;;;;;;1.20;1.10;;;25.20;50.60;;;;;;4994478;28;20438;-80
2021/04/22 03:12:41;;;;;;;1.30;0.93;;;25.20;50.60;;;;;;4994454;28;20856;-79
2021/04/22 03:15:08;;;;;;;1.23;1.13;;;25.20;50.50;;;;;;4994278;28;20451;-81
2021/04/22 03:17:35;;;;;;;1.30;1.20;;;25.20;50.50;;;;;;4994266;28;20816;-80
2021/04/22 03:20:03;;;;;;;1.80;1.00;;;25.20;50.50;;;;;;4994418;28;20783;-80
2021/04/22 03:22:31;;;;;;;2.37;1.10;;;25.20;50.50;;;;;;4994191;28;20486;-80
2021/04/22 03:24:57;;;;;;;1.37;0.90;;;25.20;50.50;;;;;;4994276;28;20451;-83
2021/04/22 03:27:23;;;;;;;1.30;1.07;;;25.20;50.50;;;;;;4994222;28;20446;-79
2021/04/22 03:29:49;;;;;;;1.40;1.10;;;25.20;50.60;;;;;;4994201;28;20458;-80
2021/04/22 03:32:16;;;;;;;1.30;1.13;;;25.20;50.50;;;;;;4994010;28;20874;-79
2021/04/22 03:34:42;;;;;;;1.80;1.27;;;25.20;50.50;;;;;;4993997;28;20451;-81
2021/04/22 03:37:09;;;;;;;1.30;1.00;;;25.20;50.60;;;;;;4994002;28;20452;-83
2021/04/22 03:39:36;;;;;;;1.97;1.07;;;25.20;50.50;;;;;;4993968;28;20451;-80
2021/04/22 03:42:02;;;;;;;1.20;0.93;;;25.10;50.50;;;;;;4993863;28;20940;-83
2021/04/22 03:44:28;;;;;;;1.20;1.10;;;25.20;50.50;;;;;;4994006;28;20448;-79
2021/04/22 03:46:55;;;;;;;1.40;1.00;;;25.20;50.50;;;;;;4993840;28;20565;-80
2021/04/22 03:49:21;;;;;;;1.10;1.00;;;25.20;50.50;;;;;;4994072;28;20444;-82
2021/04/22 03:51:48;;;;;;;3.07;1.17;;;25.10;50.40;;;;;;4993614;28;20457;-80
2021/04/22 03:54:14;;;;;;;1.70;1.00;;;25.20;50.50;;;;;;4993904;28;20450;-79
2021/04/22 03:56:41;;;;;;;1.50;1.17;;;25.10;50.50;;;;;;4993795;28;20451;-79
2021/04/22 03:59:07;;;;;;;1.10;0.90;;;25.20;50.50;;;;;;4993737;28;20466;-81
2021/04/22 04:01:34;;;;;;;1.70;1.30;;;25.10;50.40;;;;;;4993496;28;20470;-79
2021/04/22 04:04:00;;;;;;;2.23;1.33;;;25.10;50.40;;;;;;4993655;28;20898;-79
2021/04/22 04:06:26;;;;;;;1.33;1.23;;;25.10;50.40;;;;;;4993688;28;20443;-80
2021/04/22 04:08:52;;;;;;;1.50;1.40;;;25.10;50.40;;;;;;4993748;28;20957;-83
2021/04/22 04:11:19;;;;;;;1.40;1.10;;;25.10;50.40;;;;;;4993853;28;20451;-79
2021/04/22 04:13:46;;;;;;;1.40;1.20;;;25.10;50.40;;;;;;4997644;28;20504;-79
2021/04/22 04:16:12;;;;;;;1.30;1.13;;;25.10;50.50;;;;;;4997696;28;20934;-79
2021/04/22 04:18:39;;;;;;;1.40;1.10;;;25.10;50.50;;;;;;4997491;28;20455;-79
2021/04/22 04:21:06;;;;;;;1.40;1.10;;;25.10;50.50;;;;;;4997769;28;20483;-79
2021/04/22 04:23:32;;;;;;;1.47;1.17;;;25.10;50.50;;;;;;4997469;28;20501;-79
2021/04/22 04:25:58;;;;;;;1.70;1.33;;;25.10;50.40;;;;;;4997528;28;20999;-80
2021/04/22 04:28:25;;;;;;;1.27;1.10;;;25.10;50.40;;;;;;4997465;28;20814;-79
2021/04/22 04:30:52;;;;;;;1.33;1.03;;;25.10;50.50;;;;;;4997283;28;20480;-82
2021/04/22 04:33:18;;;;;;;1.20;0.97;;;25.10;50.50;;;;;;4997279;28;20933;-79
2021/04/22 04:35:44;;;;;;;2.43;1.40;;;25.10;50.70;;;;;;4997279;28;20474;-79
2021/04/22 04:38:11;;;;;;;1.60;1.50;;;25.10;50.60;;;;;;4997286;28;20953;-81
2021/04/22 04:40:37;;;;;;;1.30;1.10;;;25.10;50.70;;;;;;4997283;28;20461;-79
2021/04/22 04:43:03;;;;;;;1.63;1.40;;;25.10;50.60;;;;;;4997051;28;20548;-79
2021/04/22 04:45:30;;;;;;;1.30;1.13;;;25.10;50.70;;;;;;4997276;28;20452;-79
2021/04/22 04:47:57;;;;;;;1.33;1.10;;;25.10;50.60;;;;;;4997105;28;20554;-83
2021/04/22 04:50:23;;;;;;;1.90;1.40;;;25.10;50.60;;;;;;4996995;28;20450;-79
2021/04/22 04:52:50;;;;;;;2.70;1.30;;;25.10;50.60;;;;;;4996899;28;20459;-79
2021/04/22 04:55:16;;;;;;;2.27;1.80;;;25.10;50.70;;;;;;4996746;28;20967;-80
2021/04/22 04:57:43;;;;;;;1.40;1.10;;;25.10;50.60;;;;;;4996974;28;20471;-79
2021/04/22 05:00:12;;;;;;;1.83;1.20;;;25.00;50.60;;;;;;4996990;28;20600;-83
2021/04/22 05:02:39;;;;;;;1.40;1.13;;;25.10;50.60;;;;;;4997065;28;20818;-83
2021/04/22 05:05:08;;;;;;;1.50;1.40;;;25.10;50.60;;;;;;4996877;28;20468;-79
2021/04/22 05:07:34;;;;;;;1.97;1.60;;;25.10;50.60;;;;;;4996968;28;20938;-79
2021/04/22 05:10:00;;;;;;;1.60;1.10;;;25.00;50.70;;;;;;4996893;28;20508;-83
2021/04/22 05:12:26;;;;;;;2.13;1.30;;;25.00;50.50;;;;;;4996973;28;20542;-83
2021/04/22 05:14:53;;;;;;;1.30;1.10;;;25.10;50.50;;;;;;4996693;28;20957;-83
2021/04/22 05:17:19;;;;;;;2.17;1.50;;;25.10;50.60;;;;;;4995822;28;20475;-79
2021/04/22 05:19:46;;;;;;;1.70;1.43;;;25.00;50.60;;;;;;4996831;28;20864;-79
2021/04/22 05:22:13;;;;;;;1.40;1.20;;;25.10;50.70;;;;;;4996050;28;20448;-85
2021/04/22 05:24:39;;;;;;;1.77;1.67;;;25.10;51.20;;;;;;4996933;28;20434;-79
2021/04/22 05:27:07;;;;;;;1.40;1.20;;;25.10;50.70;;;;;;4996557;28;20789;-79
2021/04/22 05:29:34;;;;;;;2.40;1.87;;;25.00;50.60;;;;;;4996567;28;20852;-79
2021/04/22 05:32:00;;;;;;;1.43;1.33;;;25.10;50.50;;;;;;4996582;28;20946;-85
2021/04/22 05:34:27;;;;;;;1.70;1.60;;;25.10;50.50;;;;;;4996301;28;20442;-79
2021/04/22 05:36:54;;;;;;;2.00;1.83;;;25.10;50.40;;;;;;4996405;28;20444;-85
2021/04/22 05:39:22;;;;;;;1.80;1.10;;;25.10;50.50;;;;;;4996414;28;20779;-79
2021/04/22 05:41:49;;;;;;;1.93;1.37;;;25.10;50.60;;;;;;4996424;28;20447;-85
2021/04/22 05:44:15;;;;;;;1.43;1.30;;;25.00;50.60;;;;;;4996121;28;20514;-85
2021/04/22 05:46:43;;;;;;;1.70;1.50;;;25.10;50.50;;;;;;4996014;28;20874;-79
2021/04/22 05:49:09;;;;;;;1.90;1.60;;;25.00;50.40;;;;;;4996226;28;20492;-85
2021/04/22 05:51:38;;;;;;;1.50;1.23;;;25.10;50.50;;;;;;4996078;28;20451;-79
2021/04/22 05:54:04;;;;;;;1.20;1.10;;;25.10;50.40;;;;;;4995951;28;20459;-79
2021/04/22 05:56:32;;;;;;;1.70;1.40;;;25.00;50.40;;;;;;4996156;28;20829;-85
2021/04/22 05:58:58;;;;;;;1.83;1.33;;;25.10;50.50;;;;;;4995941;28;20444;-79
2021/04/22 06:01:25;;;;;;;1.67;1.13;;;25.10;50.40;;;;;;4995584;28;20481;-85
2021/04/22 06:03:51;;;;;;;2.13;1.30;;;25.10;50.40;;;;;;4996064;28;20491;-85
2021/04/22 06:06:17;;;;;;;1.43;1.10;;;25.10;50.30;;;;;;4995761;28;20443;-85
2021/04/22 06:08:44;;;;;;;1.50;1.27;;;25.10;50.40;;;;;;4995866;28;20451;-79
2021/04/22 06:11:10;;;;;;;1.80;1.70;;;25.00;50.30;;;;;;4995391;28;20455;-80
2021/04/22 06:13:37;;;;;;;1.63;1.53;;;25.10;50.30;;;;;;4995520;28;20453;-81
2021/04/22 06:16:04;;;;;;;1.77;1.60;;;25.10;50.80;;;;;;4995660;28;20448;-78
2021/04/22 06:18:31;;;;;;;1.73;1.20;;;25.00;50.20;;;;;;4995420;28;20471;-90
2021/04/22 06:20:57;;;;;;;2.03;1.60;;;25.10;50.70;;;;;;4995689;28;20439;-79
2021/04/22 06:23:25;;;;;;;1.67;1.40;;;25.10;51.20;;;;;;4995440;28;20854;-79
2021/04/22 06:25:51;;;;;;;2.70;1.10;;;25.20;50.60;;;;;;4995464;28;20447;-79
2021/04/22 06:28:18;;;;;;;3.07;1.57;;;25.20;50.30;;;;;;4995412;28;20500;-86
2021/04/22 06:30:45;;;;;;;5.23;1.63;;;25.20;50.10;;;;;;4995341;28;20942;-85
2021/04/22 06:33:11;;;;;;;2.13;1.20;;;25.20;50.10;;;;;;4995144;28;20448;-85
2021/04/22 06:35:37;;;;;;;2.07;1.60;;;25.20;50.10;;;;;;4994102;28;20457;-79
2021/04/22 06:38:04;;;;;;;2.00;1.30;;;25.20;50.20;;;;;;4995126;28;20447;-85
2021/04/22 06:40:31;;;;;;;1.57;1.13;;;25.20;50.10;;;;;;4995145;28;20450;-85
2021/04/22 06:42:57;;;;;;;1.50;1.40;;;25.20;50.20;;;;;;4995026;28;21027;-85
2021/04/22 06:45:23;;;;;;;2.17;1.50;;;25.30;50.10;;;;;;4995098;28;20504;-85
2021/04/22 06:47:51;;;;;;;3.20;1.50;;;25.30;50.10;;;;;;4994822;28;20463;-79
2021/04/22 06:50:21;;;;;;;1.33;1.13;;;25.30;50.00;;;;;;4995079;28;20475;-79
2021/04/22 06:52:49;;;;;;;1.20;1.00;;;25.30;50.00;;;;;;4994930;28;20454;-79
2021/04/22 06:55:17;;;;;;;2.80;1.13;;;25.30;50.00;;;;;;4994718;28;20938;-79
2021/04/22 06:57:44;;;;;;;1.60;1.30;;;25.30;50.00;;;;;;4994673;28;20934;-79
2021/04/22 07:00:14;;;;;;;1.47;1.37;;;25.40;50.10;;;;;;4994608;28;20488;-79
2021/04/22 07:02:40;;;;;;;4.50;1.60;;;25.40;50.60;;;;;;4994726;28;20481;-79
2021/04/22 07:05:09;;;;;;;1.40;1.20;;;25.40;50.40;;;;;;4994724;28;20502;-79
2021/04/22 07:07:35;;;;;;;1.60;1.50;;;25.40;50.70;;;;;;4994657;28;20443;-85
2021/04/22 07:10:02;;;;;;;1.30;1.03;;;25.40;50.70;;;;;;4994500;28;20830;-79
2021/04/22 07:12:29;;;;;;;1.60;1.50;;;25.40;50.50;;;;;;4994438;28;20444;-79
2021/04/22 07:14:55;;;;;;;4.70;1.30;;;25.40;50.50;;;;;;4994412;28;20772;-79
2021/04/22 07:17:21;;;;;;;1.43;1.30;;;25.40;50.40;;;;;;4994246;28;20455;-79
2021/04/22 07:19:48;;;;;;;1.90;1.50;;;25.40;50.50;;;;;;4994680;28;20452;-86
2021/04/22 07:22:15;;;;;;;3.40;1.30;;;25.50;50.70;;;;;;4994526;28;20455;-78
2021/04/22 07:24:41;;;;;;;2.00;1.40;;;25.50;51.00;;;;;;4994373;28;20509;-80
2021/04/22 07:27:10;;;;;;;3.57;1.63;;;25.50;51.10;;;;;;4990524;28;20461;-81
2021/04/22 07:29:39;;;;;;;2.17;1.37;;;25.50;51.30;;;;;;4992728;28;20951;-82
2021/04/22 07:32:06;;;;;;;2.80;1.60;;;25.60;51.20;;;;;;4984884;28;20455;-82
2021/04/22 07:34:32;;;;;;;2.57;1.83;;;25.60;51.20;;;;;;4992573;28;20550;-83
2021/04/22 07:36:59;;;;;;;1.83;1.20;;;25.60;51.20;;;;;;4994171;28;20946;-90
2021/04/22 07:39:26;;;;;;;1.50;1.27;;;25.70;51.20;;;;;;5011808;28;20483;-86
2021/04/22 07:41:54;;;;;;;3.20;1.30;;;25.70;51.10;;;;;;5000386;28;20485;-84
2021/04/22 07:44:20;;;;;;;1.40;1.20;;;25.60;51.30;;;;;;4992217;28;20503;-85
2021/04/22 07:46:47;;;;;;;1.93;1.30;;;25.70;51.60;;;;;;4990194;28;20507;-86
2021/04/22 07:49:13;;;;;;;3.00;1.27;;;25.70;51.80;;;;;;5002143;28;20458;-85
2021/04/22 07:51:40;;;;;;;1.90;1.30;;;25.80;52.00;;;;;;5012743;28;20455;-85
2021/04/22 07:54:06;;;;;;;3.43;1.80;;;25.80;52.00;;;;;;5012655;28;20550;-84
2021/04/22 07:56:34;;;;;;;1.70;1.30;;;25.80;52.20;;;;;;5011650;28;20466;-87
2021/04/22 07:59:00;;;;;;;4.70;1.50;;;25.80;52.20;;;;;;5011199;28;20447;-87
2021/04/22 08:01:28;;;;;;;3.53;1.23;;;25.80;52.20;;;;;;5012249;28;20479;-87
2021/04/22 08:03:54;;;;;;;1.70;1.30;;;25.90;52.40;;;;;;5012184;28;20496;-84
2021/04/22 08:06:20;;;;;;;2.27;1.23;;;25.90;52.40;;;;;;5000101;28;20444;-84
2021/04/22 08:08:47;;;;;;;1.70;1.30;;;25.90;52.40;;;;;;4993409;28;20447;-81
2021/04/22 08:11:14;;;;;;;1.30;1.00;;;25.90;52.50;;;;;;4994269;28;20449;-86
2021/04/22 08:13:41;;;;;;;1.63;1.10;;;25.90;52.50;;;;;;4994048;28;20862;-84
2021/04/22 08:16:08;;;;;;;3.10;1.10;;;26.00;52.50;;;;;;4992362;28;20480;-82
2021/04/22 08:18:34;;;;;;;3.00;1.90;;;26.00;52.50;;;;;;4991362;28;20459;-85
2021/04/22 08:21:01;;;;;;;1.90;1.30;;;26.00;52.60;;;;;;4992940;28;20977;-84
2021/04/22 08:23:31;;;;;;;2.07;1.53;;;26.00;52.30;;;;;;4992488;28;20484;-85
2021/04/22 08:25:59;;;;;;;1.53;1.00;;;26.00;51.60;;;;;;5002627;28;20818;-84
2021/04/22 08:28:30;;;;;;;1.77;1.30;;;26.00;51.60;;;;;;5012622;28;21088;-90
2021/04/22 08:31:00;;;;;;;2.17;1.60;;;26.10;51.70;;;;;;5012650;28;20558;-84
2021/04/22 08:33:29;;;;;;;1.83;1.20;;;26.10;51.50;;;;;;5012898;28;20914;-85
2021/04/22 08:35:56;;;;;;;3.40;1.63;;;26.10;51.70;;;;;;5002793;28;20454;-85
2021/04/22 08:38:22;;;;;;;2.47;1.43;;;26.00;50.40;;;;;;4992738;28;20439;-85
2021/04/22 08:40:51;;;;;;;1.40;1.23;;;26.00;50.00;;;;;;4992637;28;20517;-89
2021/04/22 08:43:18;;;;;;;4.10;1.53;;;26.00;50.10;;;;;;4992473;28;20997;-85
2021/04/22 08:45:45;;;;;;;2.00;1.40;;;26.00;51.30;;;;;;4992287;28;20448;-85
2021/04/22 08:48:13;;;;;;;2.07;1.20;;;26.00;51.60;;;;;;4992511;28;20460;-86
2021/04/22 08:50:41;;;;;;;2.83;1.43;;;26.00;51.90;;;;;;4992295;28;20860;-86
2021/04/22 08:53:12;;;;;;;11.10;2.10;;;26.00;51.90;;;;;;4992598;28;20819;-84
2021/04/22 08:55:39;;;;;;;3.20;1.47;;;26.10;52.00;;;;;;4988883;28;20457;-88
2021/04/22 08:58:06;;;;;;;2.50;1.27;;;26.20;52.10;;;;;;4987100;28;20860;-83
2021/04/22 09:00:39;;;;;;;2.10;1.40;;;26.20;51.90;;;;;;4996780;28;21002;-83
2021/04/22 09:03:05;;;;;;;2.03;1.40;;;26.30;52.00;;;;;;4996848;28;20490;-84
2021/04/22 09:05:33;;;;;;;2.23;1.73;;;26.30;51.90;;;;;;4996783;28;20506;-83
2021/04/22 09:07:59;;;;;;;2.97;1.27;;;26.40;51.90;;;;;;4996811;28;20445;-83
2021/04/22 09:10:26;;;;;;;1.93;1.20;;;26.50;52.50;;;;;;4996790;28;20498;-83
2021/04/22 09:12:58;;;;;;;1.37;1.10;;;26.60;51.90;;;;;;4996723;28;20459;-84
2021/04/22 09:15:24;;;;;;;3.47;1.50;;;26.70;51.90;;;;;;4996443;28;20442;-83
2021/04/22 09:17:58;;;;;;;5.33;1.27;;;26.70;51.80;;;;;;4996514;28;20469;-83
2021/04/22 09:20:29;;;;;;;2.17;1.40;;;26.70;51.80;;;;;;4996533;28;20480;-83
2021/04/22 09:22:57;;;;;;;1.27;1.07;;;26.70;51.80;;;;;;4996495;28;20477;-84
2021/04/22 09:25:26;;;;;;;2.13;1.23;;;26.70;51.70;;;;;;4996433;28;20441;-83
2021/04/22 09:27:56;;;;;;;1.60;1.20;;;26.90;51.70;;;;;;4996553;28;20467;-84
2021/04/22 09:30:34;;;;;;;2.23;1.73;;;26.90;51.70;;;;;;4996424;28;20452;-83
2021/04/22 09:33:01;;;;;;;6.23;1.30;;;27.00;51.70;;;;;;4996459;28;20852;-83
2021/04/22 09:35:28;;;;;;;1.67;1.23;;;27.00;51.70;;;;;;4996176;28;20442;-83
2021/04/22 09:37:56;;;;;;;2.10;1.30;;;27.00;51.60;;;;;;4996579;28;20453;-84
2021/04/22 09:40:26;;;;;;;4.60;1.20;;;27.10;51.70;;;;;;4996326;28;20881;-85
2021/04/22 09:42:53;;;;;;;3.73;1.33;;;27.10;51.60;;;;;;4995974;28;20510;-84
2021/04/22 09:45:21;;;;;;;3.13;1.50;;;27.10;51.60;;;;;;4996034;28;20951;-83
2021/04/22 09:47:48;;;;;;;1.83;1.20;;;27.10;52.20;;;;;;4995844;28;20498;-84
2021/04/22 09:50:17;;;;;;;2.23;1.30;;;27.20;51.70;;;;;;4996045;28;20446;-85
2021/04/22 09:52:46;;;;;;;2.90;1.73;;;27.20;52.30;;;;;;4995959;28;20489;-84
2021/04/22 09:55:15;;;;;;;1.60;1.43;;;27.20;51.70;;;;;;4995830;28;20584;-84
2021/04/22 09:57:43;;;;;;;1.70;1.13;;;27.20;51.70;;;;;;4995962;28;20507;-84
2021/04/22 10:00:14;;;;;;;1.47;1.30;;;27.30;51.80;;;;;;4995528;28;20474;-85
2021/04/22 10:02:44;;;;;;;1.83;1.20;;;27.30;51.80;;;;;;4995988;28;20459;-83
2021/04/22 10:05:18;;;;;;;2.27;1.20;;;27.30;51.80;;;;;;4995751;28;20454;-83
2021/04/22 10:07:45;;;;;;;2.57;1.57;;;27.30;51.80;;;;;;4995705;28;20811;-85
2021/04/22 10:10:18;;;;;;;1.30;1.13;;;27.30;51.80;;;;;;4995603;28;20529;-85
2021/04/22 10:12:45;;;;;;;1.97;1.20;;;27.40;51.90;;;;;;4995712;28;20446;-83
2021/04/22 10:15:14;;;;;;;1.80;1.40;;;27.50;52.00;;;;;;4995408;28;20458;-84
2021/04/22 10:17:40;;;;;;;1.67;1.30;;;27.40;52.00;;;;;;4995372;28;20462;-83
2021/04/22 10:20:10;;;;;;;2.77;1.30;;;27.40;52.00;;;;;;4995454;28;20445;-83
2021/04/22 10:22:38;;;;;;;1.93;1.20;;;27.40;52.10;;;;;;4995255;28;20503;-83
2021/04/22 10:25:08;;;;;;;1.60;1.20;;;27.40;52.10;;;;;;4995393;28;20533;-84
2021/04/22 10:27:35;;;;;;;1.50;1.10;;;27.40;52.10;;;;;;4995382;28;20529;-82
2021/04/22 10:30:03;;;;;;;2.03;1.30;;;27.40;52.20;;;;;;4995347;28;20441;-83
2021/04/22 10:32:29;;;;;;;2.30;1.37;;;27.40;52.20;;;;;;4995261;28;20451;-83
2021/04/22 10:34:55;;;;;;;1.50;1.10;;;27.50;52.20;;;;;;4995030;28;20958;-83
2021/04/22 10:37:23;;;;;;;1.53;1.30;;;27.50;52.20;;;;;;4995082;28;20465;-83
2021/04/22 10:39:53;;;;;;;2.23;1.20;;;27.50;52.30;;;;;;4995064;28;20442;-83
2021/04/22 10:42:20;;;;;;;2.43;1.20;;;27.50;52.20;;;;;;4994982;28;20528;-85
2021/04/22 10:44:49;;;;;;;1.93;1.27;;;27.50;52.30;;;;;;4994839;28;20492;-84
2021/04/22 10:47:16;;;;;;;1.30;0.90;;;27.60;52.30;;;;;;4994966;28;20566;-83
2021/04/22 10:49:42;;;;;;;1.90;1.20;;;27.60;52.20;;;;;;4994883;28;20828;-83
2021/04/22 10:52:09;;;;;;;1.93;1.30;;;27.60;52.30;;;;;;4994843;28;20442;-83
2021/04/22 10:54:38;;;;;;;2.13;1.43;;;27.60;52.20;;;;;;4994683;28;20548;-83
2021/04/22 10:57:07;;;;;;;1.30;1.10;;;27.60;52.20;;;;;;4994768;28;20939;-83
2021/04/22 10:59:34;;;;;;;1.40;1.00;;;27.70;52.30;;;;;;4994529;28;20480;-85
2021/04/22 11:02:17;;;;;;;1.97;1.60;;;27.70;52.00;;;;;;4994745;28;20447;-84
2021/04/22 11:04:44;;;;;;;2.70;1.40;;;27.70;49.30;;;;;;4994590;28;20845;-84
2021/04/22 11:07:20;;;;;;;2.67;1.90;;;27.60;47.50;;;;;;4994621;28;20478;-84
2021/04/22 11:09:48;;;;;;;3.53;1.93;;;27.50;45.90;;;;;;4994706;28;20534;-85
2021/04/22 11:12:23;;;;;;;4.70;2.30;;;27.40;46.60;;;;;;4994451;28;20448;-84
2021/04/22 11:14:51;;;;;;;5.60;2.43;;;27.30;46.80;;;;;;4994324;28;20489;-84
2021/04/22 11:17:20;;;;;;;3.47;1.77;;;27.30;48.50;;;;;;4994768;28;20816;-85
2021/04/22 11:19:49;;;;;;;3.83;1.97;;;27.20;47.40;;;;;;4994131;28;20445;-82
2021/04/22 11:22:23;;;;;;;3.80;1.80;;;27.10;48.30;;;;;;4990438;28;20449;-84
2021/04/22 11:24:56;;;;;;;3.43;1.97;;;27.20;48.60;;;;;;4993393;28;20993;-83
2021/04/22 11:27:24;;;;;;;4.30;2.10;;;27.20;48.90;;;;;;4992682;28;20453;-84
2021/04/22 11:29:52;;;;;;;4.17;2.20;;;27.20;49.10;;;;;;4994154;28;20453;-83
2021/04/22 11:32:26;;;;;;;2.23;1.70;;;27.30;49.40;;;;;;4994295;28;20447;-84
2021/04/22 11:34:54;;;;;;;5.50;1.80;;;27.30;49.60;;;;;;4979127;28;20499;-83
2021/04/22 11:37:22;;;;;;;3.00;1.87;;;27.40;49.50;;;;;;4988354;28;20439;-84
2021/04/22 11:39:50;;;;;;;3.60;1.90;;;27.50;49.60;;;;;;4991155;28;20488;-83
2021/04/22 11:42:17;;;;;;;4.63;1.80;;;27.60;49.60;;;;;;4985585;28;20444;-84
2021/04/22 11:44:48;;;;;;;3.37;2.10;;;27.70;49.70;;;;;;4974474;28;20495;-83
2021/04/22 11:47:22;;;;;;;3.80;1.77;;;27.70;49.80;;;;;;4974843;28;20479;-86
2021/04/22 11:50:01;;;;;;;2.70;1.97;;;27.60;48.60;;;;;;4974785;28;20845;-86
2021/04/22 11:52:39;;;;;;;5.53;1.90;;;27.60;48.40;;;;;;4975254;28;20442;-86
2021/04/22 11:55:16;;;;;;;3.77;2.00;;;27.50;48.70;;;;;;4974691;28;20506;-83
2021/04/22 11:57:54;;;;;;;2.23;1.50;;;27.50;49.30;;;;;;4974791;28;20438;-83
2021/04/22 12:00:23;;;;;;;3.70;1.80;;;27.50;49.60;;;;;;4974420;28;20487;-83
2021/04/22 12:02:49;;;;;;;4.50;1.67;;;27.60;49.50;;;;;;4974594;28;20440;-83
2021/04/22 12:05:17;;;;;;;3.67;1.80;;;27.80;49.30;;;;;;4974645;28;20444;-83
2021/04/22 12:07:46;;;;;;;2.90;1.60;;;27.80;49.40;;;;;;4974789;28;20458;-84
2021/04/22 12:10:17;;;;;;;3.00;1.73;;;28.00;49.40;;;;;;4974515;28;20511;-83
2021/04/22 12:12:44;;;;;;;5.03;1.30;;;28.00;49.40;;;;;;4974584;28;20447;-83
2021/04/22 12:15:10;;;;;;;3.17;1.80;;;28.10;49.60;;;;;;4974351;28;20460;-83
2021/04/22 12:17:37;;;;;;;3.03;1.90;;;28.10;49.60;;;;;;4974480;28;20469;-83
2021/04/22 12:20:07;;;;;;;3.73;1.87;;;28.10;49.70;;;;;;4974478;28;20449;-84
2021/04/22 12:22:39;;;;;;;5.07;2.20;;;28.20;49.70;;;;;;4974689;28;20442;-83
2021/04/22 12:25:11;;;;;;;2.60;1.40;;;28.30;49.90;;;;;;4974454;28;20499;-83
2021/04/22 12:27:40;;;;;;;2.60;1.80;;;28.30;49.80;;;;;;4974378;28;20780;-84
2021/04/22 12:30:34;;;;;;;1.73;1.43;;;28.20;49.30;;;;;;4974483;28;20452;-85
2021/04/22 12:33:06;;;;;;;3.47;1.87;;;28.20;49.70;;;;;;4941822;28;20499;-84
2021/04/22 12:35:34;;;;;;;3.87;1.90;;;28.30;49.60;;;;;;4978063;28;20540;-85
2021/04/22 12:38:13;;;;;;;4.07;1.60;;;28.20;49.90;;;;;;4978477;28;20440;-85
2021/04/22 12:40:40;;;;;;;4.40;2.00;;;28.10;50.30;;;;;;4978465;28;20456;-84
2021/04/22 12:43:06;;;;;;;3.90;2.10;;;28.00;50.50;;;;;;4978272;28;20441;-84
2021/04/22 12:45:37;;;;;;;1.97;1.70;;;28.00;50.70;;;;;;4978152;28;20456;-84
2021/04/22 12:48:05;;;;;;;4.27;1.60;;;28.00;50.80;;;;;;4977879;28;20459;-84
2021/04/22 12:50:38;;;;;;;1.77;1.50;;;27.90;50.90;;;;;;4977828;28;20948;-84